createdAt,value
2022-12-27T12:01:55.539Z,87.14
2022-12-27T12:17:36.120Z,87.72
2022-12-27T12:33:18.176Z,86.87
2022-12-27T12:48:59.238Z,90.76
2022-12-27T13:04:14.146Z,95.48
2022-12-27T13:19:39.294Z,98.02
2022-12-27T13:34:57.508Z,99.27
2022-12-27T13:50:31.967Z,100.00
2022-12-27T14:05:54.014Z,100.00
2022-12-27T14:21:31.559Z,100.00
2022-12-27T14:36:53.439Z,100.00
2022-12-27T14:52:36.208Z,100.00
2022-12-27T15:08:07.704Z,100.00
2022-12-27T15:23:35.012Z,100.00
2022-12-27T15:38:49.565Z,100.00
2022-12-27T15:54:25.837Z,100.00
2022-12-27T16:09:35.884Z,99.17
2022-12-27T16:24:42.431Z,98.60
2022-12-27T16:40:07.837Z,97.96
2022-12-27T16:55:14.364Z,97.84
2022-12-27T17:23:05.474Z,97.28
2022-12-27T17:38:24.384Z,95.96
2022-12-27T17:53:46.968Z,96.06
2022-12-27T18:08:51.448Z,95.98
2022-12-27T18:23:55.865Z,95.33
2022-12-27T18:39:00.899Z,94.80
2022-12-27T18:54:35.976Z,94.38
2022-12-27T19:09:49.737Z,94.81
2022-12-27T19:25:02.495Z,95.93
2022-12-27T19:40:07.293Z,96.85
2022-12-27T19:55:21.131Z,97.97
2022-12-27T20:10:30.991Z,98.88
2022-12-27T20:25:37.120Z,99.78
2022-12-27T20:40:41.676Z,99.96
2022-12-27T20:55:45.064Z,99.54
2022-12-27T21:10:49.033Z,99.28
2022-12-27T21:25:53.445Z,98.47
2022-12-27T21:41:18.335Z,97.74
2022-12-27T21:56:22.594Z,97.44
2022-12-27T22:11:29.751Z,97.56
2022-12-27T22:26:37.683Z,96.89
2022-12-27T22:41:41.019Z,97.11
2022-12-27T22:56:44.694Z,97.39
2022-12-27T23:11:48.014Z,97.45
2022-12-27T23:27:00.621Z,97.89
2022-12-27T23:42:03.930Z,98.08
2022-12-27T23:57:22.416Z,97.91
